X  Sluiten METAR luchtvaart weer gegevens      KVAD Moody Air Force Base
Temperatuur
73°F Temperatuur
68°F Dauwpunt
83% Vochtigheid



Wind
10 MPH
16 KM/U
4 M/S
9 KTS



100°
O
Huidig weer

Lichte Regen Lichte Regen
Luchtdruk 1014.92 (hPa) - 29.97 (inHg)
Zicht 10 (mijl) - 16.1 (km)
Vliegveld
Vliegveld code KVAD

Locatie : Moody Air Force Base
Afstand: 5 (mi)

Metar:
KVAD 312005Z AUTO 10009KT 10SM -RA SCT049 23/20 A2997 RMK AO2 RAE03RAB05 SLP150 $

Tijd: 31-05-2023 20:05 EDT